createdAt,value
2023-02-01T00:02:15.366Z,5.70
2023-02-01T00:04:42.135Z,5.60
2023-02-01T00:07:08.885Z,5.60
2023-02-01T00:09:35.713Z,5.60
2023-02-01T00:12:03.737Z,5.60
2023-02-01T00:14:30.818Z,5.70
2023-02-01T00:16:57.556Z,5.60
2023-02-01T00:19:24.270Z,5.60
2023-02-01T00:21:50.953Z,5.60
2023-02-01T00:24:17.680Z,5.70
2023-02-01T00:26:46.007Z,5.80
2023-02-01T00:29:16.265Z,5.70
2023-02-01T00:31:43.283Z,5.80
2023-02-01T00:34:15.006Z,5.80
2023-02-01T00:36:43.032Z,5.70
2023-02-01T00:39:10.724Z,5.80
2023-02-01T00:41:37.810Z,5.80
2023-02-01T00:44:04.684Z,5.80
2023-02-01T00:46:31.837Z,5.80
2023-02-01T00:48:58.801Z,5.70
2023-02-01T00:51:28.525Z,5.80
2023-02-01T00:53:55.769Z,5.80
2023-02-01T00:56:23.082Z,5.70
2023-02-01T00:58:49.958Z,5.70
2023-02-01T01:01:25.153Z,5.80
2023-02-01T01:03:54.838Z,5.60
2023-02-01T01:06:30.464Z,5.70
2023-02-01T01:08:59.377Z,5.70
2023-02-01T01:11:29.202Z,5.70
2023-02-01T01:13:57.495Z,5.70
2023-02-01T01:16:26.223Z,5.60
2023-02-01T01:18:54.361Z,5.60
2023-02-01T01:21:21.199Z,5.60
2023-02-01T01:23:48.420Z,5.60
2023-02-01T01:26:18.682Z,5.60
2023-02-01T01:28:45.883Z,5.60
2023-02-01T01:31:14.035Z,5.70
2023-02-01T01:33:40.830Z,5.60
2023-02-01T01:36:12.094Z,5.60
2023-02-01T01:38:40.320Z,5.70
2023-02-01T01:41:07.845Z,5.60
2023-02-01T01:43:58.407Z,5.50
2023-02-01T01:46:35.442Z,5.60
2023-02-01T01:49:18.349Z,5.50
2023-02-01T01:51:51.802Z,5.50
2023-02-01T01:54:25.922Z,5.60
2023-02-01T01:56:57.976Z,5.60
2023-02-01T01:59:25.554Z,5.50
2023-02-01T02:01:53.280Z,5.40
2023-02-01T02:04:20.872Z,5.40
2023-02-01T02:06:52.462Z,5.40
2023-02-01T02:09:19.598Z,5.30
2023-02-01T02:11:46.624Z,5.40
2023-02-01T02:14:18.380Z,5.40
2023-02-01T02:16:48.266Z,5.50
2023-02-01T02:19:25.125Z,5.50
2023-02-01T02:22:17.030Z,5.50
2023-02-01T02:25:22.536Z,5.50
2023-02-01T02:28:13.187Z,5.50
2023-02-01T02:30:55.184Z,5.50
2023-02-01T02:33:52.964Z,5.50
2023-02-01T02:36:43.723Z,5.50
2023-02-01T02:39:38.983Z,5.50
2023-02-01T02:42:31.019Z,5.60
2023-02-01T02:45:32.383Z,5.60
2023-02-01T02:48:12.679Z,5.70
2023-02-01T02:51:06.186Z,5.80
2023-02-01T02:54:05.725Z,5.80
2023-02-01T02:56:51.583Z,5.90
2023-02-01T02:59:41.419Z,6.00
2023-02-01T03:02:27.325Z,6.00
2023-02-01T03:04:58.810Z,5.90
2023-02-01T03:07:50.651Z,6.00
2023-02-01T03:10:51.097Z,6.10
2023-02-01T03:13:36.578Z,6.10
2023-02-01T03:16:27.309Z,6.10
2023-02-01T03:19:06.754Z,6.10
2023-02-01T03:22:04.674Z,6.10
2023-02-01T03:24:38.287Z,6.10
2023-02-01T03:27:23.931Z,6.20
2023-02-01T03:29:59.481Z,6.20
2023-02-01T03:32:26.553Z,6.10
2023-02-01T03:34:54.587Z,6.10
2023-02-01T03:37:28.732Z,6.00
2023-02-01T03:40:09.005Z,6.00
2023-02-01T03:42:40.921Z,6.00
2023-02-01T03:45:13.530Z,6.00
2023-02-01T03:47:44.257Z,5.90
2023-02-01T03:50:14.853Z,5.90
2023-02-01T03:52:45.668Z,5.90
2023-02-01T03:55:14.543Z,5.90
2023-02-01T03:57:46.898Z,5.90
2023-02-01T04:00:21.073Z,5.90
2023-02-01T04:02:48.110Z,6.00
2023-02-01T04:05:15.268Z,5.90
2023-02-01T04:07:42.131Z,5.90
2023-02-01T04:10:10.393Z,5.90
2023-02-01T04:12:37.385Z,5.80
2023-02-01T04:15:04.787Z,5.80
2023-02-01T04:17:31.750Z,5.80
2023-02-01T04:19:58.483Z,5.80
2023-02-01T04:22:25.288Z,5.80
2023-02-01T04:24:51.997Z,5.80
2023-02-01T04:27:19.075Z,5.80
2023-02-01T04:29:46.302Z,5.90
2023-02-01T04:32:13.061Z,5.90
2023-02-01T04:34:39.849Z,6.00
2023-02-01T04:37:06.877Z,6.00
2023-02-01T04:39:33.754Z,6.00
2023-02-01T04:42:00.544Z,6.00
2023-02-01T04:44:27.313Z,6.10
2023-02-01T04:46:54.082Z,6.10
2023-02-01T04:49:22.268Z,6.10
2023-02-01T04:51:49.370Z,6.10
2023-02-01T04:54:16.264Z,6.10
2023-02-01T04:56:42.966Z,6.20
2023-02-01T04:59:12.581Z,6.20
2023-02-01T05:01:39.565Z,6.20
2023-02-01T05:04:06.317Z,6.10
2023-02-01T05:06:33.056Z,6.10
2023-02-01T05:08:59.770Z,6.10
2023-02-01T05:11:45.209Z,6.20
2023-02-01T05:14:12.084Z,6.20
2023-02-01T05:16:38.840Z,6.20
2023-02-01T05:19:05.558Z,6.30
2023-02-01T05:21:32.301Z,6.20
2023-02-01T05:24:10.950Z,6.30
2023-02-01T05:26:39.013Z,6.30
2023-02-01T05:29:07.047Z,6.30
2023-02-01T05:31:34.001Z,6.30
2023-02-01T05:34:00.881Z,6.30
2023-02-01T05:36:27.832Z,6.40
2023-02-01T05:38:54.809Z,6.30
2023-02-01T05:41:21.932Z,6.40
2023-02-01T05:43:48.642Z,6.40
2023-02-01T05:46:15.374Z,6.40
2023-02-01T05:48:43.057Z,6.40
2023-02-01T05:51:10.654Z,6.40
2023-02-01T05:53:37.582Z,6.50
2023-02-01T05:56:05.273Z,6.50
2023-02-01T05:58:32.108Z,6.50
2023-02-01T06:01:02.709Z,6.50
2023-02-01T06:03:29.495Z,6.50
2023-02-01T06:05:56.427Z,6.60
2023-02-01T06:08:25.391Z,6.60
2023-02-01T06:10:59.959Z,6.60
2023-02-01T06:13:26.676Z,6.60
2023-02-01T06:15:53.774Z,6.70
2023-02-01T06:18:20.884Z,6.70
2023-02-01T06:20:56.992Z,6.70
2023-02-01T06:23:24.784Z,6.70
2023-02-01T06:25:52.860Z,6.70
2023-02-01T06:28:20.016Z,6.70
2023-02-01T06:30:47.125Z,6.70
2023-02-01T06:33:16.072Z,6.80
2023-02-01T06:35:45.216Z,6.80
2023-02-01T06:38:12.760Z,6.80
2023-02-01T06:40:40.282Z,6.80
2023-02-01T06:43:07.053Z,6.80
2023-02-01T06:45:33.773Z,6.80
2023-02-01T06:48:01.502Z,6.70
2023-02-01T06:50:29.012Z,6.70
2023-02-01T06:52:56.467Z,6.70
2023-02-01T06:55:23.329Z,6.80
2023-02-01T06:57:54.614Z,6.70
2023-02-01T07:00:22.668Z,6.70
2023-02-01T07:02:49.973Z,6.60
2023-02-01T07:05:16.886Z,6.50
2023-02-01T07:07:43.812Z,6.60
2023-02-01T07:10:11.504Z,6.60
2023-02-01T07:12:38.241Z,6.50
2023-02-01T07:15:05.706Z,6.50
2023-02-01T07:17:32.587Z,6.50
2023-02-01T07:20:02.683Z,6.50
2023-02-01T07:22:30.165Z,6.50
2023-02-01T07:24:56.918Z,6.50
2023-02-01T07:27:25.891Z,6.50
2023-02-01T07:29:53.379Z,6.50
2023-02-01T07:32:20.132Z,6.50
2023-02-01T07:34:46.946Z,6.50
2023-02-01T07:37:13.697Z,6.50
2023-02-01T07:39:40.459Z,6.50
2023-02-01T07:42:07.665Z,6.60
2023-02-01T07:44:34.432Z,6.50
2023-02-01T07:47:01.208Z,6.50
2023-02-01T07:49:28.038Z,6.50
2023-02-01T07:51:54.803Z,6.50
2023-02-01T07:54:21.512Z,6.50
2023-02-01T07:56:48.213Z,6.50
2023-02-01T07:59:16.158Z,6.50
2023-02-01T08:01:43.606Z,6.50
2023-02-01T08:04:13.460Z,6.60
2023-02-01T08:06:41.033Z,6.50
2023-02-01T08:09:09.237Z,6.60
2023-02-01T08:11:38.727Z,6.70
2023-02-01T08:14:06.998Z,6.70
2023-02-01T08:16:36.183Z,6.70
2023-02-01T08:19:03.068Z,6.70
2023-02-01T08:21:37.573Z,6.70
2023-02-01T08:24:06.834Z,6.70
2023-02-01T08:26:33.691Z,6.70
2023-02-01T08:29:02.751Z,6.70
2023-02-01T08:31:31.359Z,6.70
2023-02-01T08:34:01.185Z,6.70
2023-02-01T08:36:30.025Z,6.70
2023-02-01T08:38:57.164Z,6.70
2023-02-01T08:41:26.608Z,6.70
2023-02-01T08:43:55.138Z,6.80
2023-02-01T08:46:22.727Z,6.90
2023-02-01T08:48:49.797Z,7.00
2023-02-01T08:51:19.255Z,7.10
2023-02-01T08:53:46.685Z,7.10
2023-02-01T08:56:15.942Z,7.20
2023-02-01T08:58:42.804Z,7.20
2023-02-01T09:01:13.551Z,7.30
2023-02-01T09:03:41.096Z,7.30
2023-02-01T09:06:12.403Z,7.20
2023-02-01T09:08:40.922Z,7.30
2023-02-01T09:11:11.171Z,7.40
2023-02-01T09:13:37.946Z,7.40
2023-02-01T09:16:05.411Z,7.50
2023-02-01T09:18:32.227Z,7.60
2023-02-01T09:20:59.074Z,7.70
2023-02-01T09:23:26.104Z,7.70
2023-02-01T09:25:53.603Z,7.90
2023-02-01T09:28:21.001Z,8.00
2023-02-01T09:30:48.073Z,8.20
2023-02-01T09:33:14.955Z,8.20
2023-02-01T09:35:41.672Z,8.20
2023-02-01T09:38:08.488Z,8.00
2023-02-01T09:40:36.344Z,8.10
2023-02-01T09:43:09.217Z,8.30
2023-02-01T09:45:39.078Z,8.20
2023-02-01T09:48:17.763Z,8.10
2023-02-01T09:50:53.247Z,8.10
2023-02-01T09:53:29.842Z,8.10
2023-02-01T09:56:24.036Z,8.50
2023-02-01T09:59:02.360Z,8.90
2023-02-01T10:01:30.331Z,8.80
2023-02-01T10:04:05.505Z,8.80
2023-02-01T10:06:50.391Z,8.50
2023-02-01T10:09:35.816Z,8.60
2023-02-01T10:12:24.543Z,8.50
2023-02-01T10:15:16.525Z,8.20
2023-02-01T10:17:54.395Z,8.20
2023-02-01T10:20:41.022Z,8.20
2023-02-01T10:23:35.579Z,8.10
2023-02-01T10:26:02.275Z,8.20
2023-02-01T10:28:29.074Z,8.00
2023-02-01T10:30:59.383Z,8.10
2023-02-01T10:33:42.283Z,8.10
2023-02-01T10:36:08.963Z,8.00
2023-02-01T10:38:36.113Z,7.90
2023-02-01T10:41:11.920Z,8.10
2023-02-01T10:43:40.224Z,8.00
2023-02-01T10:46:09.041Z,7.90
2023-02-01T10:48:36.683Z,7.90
2023-02-01T10:51:17.283Z,7.80
2023-02-01T10:54:02.726Z,7.90
2023-02-01T10:56:30.683Z,8.00
2023-02-01T10:59:15.353Z,7.90
2023-02-01T11:01:46.052Z,7.90
2023-02-01T11:04:15.621Z,8.00
2023-02-01T11:06:45.130Z,7.90
2023-02-01T11:09:21.578Z,8.00
2023-02-01T11:11:48.256Z,7.90
2023-02-01T11:14:18.449Z,7.90
2023-02-01T11:16:50.891Z,7.90
2023-02-01T11:19:18.712Z,7.90
2023-02-01T11:21:49.968Z,8.00
2023-02-01T11:24:33.878Z,8.00
2023-02-01T11:27:06.873Z,8.00
2023-02-01T11:29:40.824Z,7.90
2023-02-01T11:32:10.978Z,7.80
2023-02-01T11:35:00.608Z,7.90
2023-02-01T11:37:42.601Z,7.90
2023-02-01T11:40:18.401Z,7.90
2023-02-01T11:43:21.750Z,8.00
2023-02-01T11:46:18.387Z,8.10
2023-02-01T11:48:45.091Z,8.20
2023-02-01T11:51:24.369Z,8.20
2023-02-01T11:54:14.791Z,8.10
2023-02-01T11:56:49.221Z,8.20
2023-02-01T11:59:51.642Z,8.10
2023-02-01T12:02:42.948Z,8.20
2023-02-01T12:05:41.158Z,8.20
2023-02-01T12:08:29.515Z,8.10
2023-02-01T12:11:24.161Z,8.10
2023-02-01T12:14:02.236Z,8.20
2023-02-01T12:16:40.961Z,8.20
2023-02-01T12:19:33.273Z,8.20
2023-02-01T12:22:30.943Z,8.20
2023-02-01T12:25:07.761Z,8.10
2023-02-01T12:27:37.538Z,8.10
2023-02-01T12:30:35.029Z,8.10
2023-02-01T12:33:25.161Z,8.10
2023-02-01T12:36:08.272Z,8.20
2023-02-01T12:39:11.918Z,8.20
2023-02-01T12:42:09.777Z,8.20
2023-02-01T12:44:45.453Z,8.20
2023-02-01T12:48:07.296Z,8.20
2023-02-01T12:50:52.766Z,8.20
2023-02-01T12:54:01.183Z,8.20
2023-02-01T12:56:42.010Z,8.30
2023-02-01T12:59:29.742Z,8.30
2023-02-01T13:02:04.850Z,8.30
2023-02-01T13:04:37.167Z,8.30
2023-02-01T13:07:18.601Z,8.40
2023-02-01T13:09:58.276Z,8.50
2023-02-01T13:13:02.765Z,8.60
2023-02-01T13:15:34.347Z,8.70
2023-02-01T13:18:05.816Z,8.70
2023-02-01T13:20:38.209Z,8.70
2023-02-01T13:23:13.892Z,8.70
2023-02-01T13:25:52.675Z,8.60
2023-02-01T13:28:28.651Z,8.80
2023-02-01T13:31:14.272Z,9.00
2023-02-01T13:33:56.248Z,9.10
2023-02-01T13:37:08.550Z,9.00
2023-02-01T13:39:44.853Z,9.00
2023-02-01T13:42:21.367Z,8.90
2023-02-01T13:44:53.451Z,8.80
2023-02-01T13:47:36.562Z,8.80
2023-02-01T13:50:41.770Z,8.80
2023-02-01T13:53:19.862Z,8.90
2023-02-01T13:55:50.659Z,8.90
2023-02-01T13:58:31.781Z,8.80
2023-02-01T14:01:20.254Z,8.90
2023-02-01T14:03:48.366Z,8.90
2023-02-01T14:06:28.550Z,8.90
2023-02-01T14:09:18.947Z,8.80
2023-02-01T14:11:54.624Z,8.80
2023-02-01T14:14:24.556Z,8.90
2023-02-01T14:16:54.375Z,8.90
2023-02-01T14:19:26.797Z,8.90
2023-02-01T14:22:02.800Z,8.80
2023-02-01T14:24:35.763Z,8.80
2023-02-01T14:27:19.394Z,8.80
2023-02-01T14:29:58.892Z,8.80
2023-02-01T14:32:31.642Z,8.70
2023-02-01T14:35:01.881Z,8.70
2023-02-01T14:37:38.696Z,8.80
2023-02-01T14:40:27.149Z,8.70
2023-02-01T14:42:55.153Z,8.70
2023-02-01T14:45:22.179Z,8.70
2023-02-01T14:47:50.103Z,8.70
2023-02-01T14:50:37.760Z,8.80
2023-02-01T14:53:16.180Z,8.80
2023-02-01T14:55:46.678Z,8.70
2023-02-01T14:58:53.065Z,8.70
2023-02-01T15:01:38.694Z,8.70
2023-02-01T15:04:10.546Z,8.70
2023-02-01T15:06:48.739Z,8.70
2023-02-01T15:09:26.109Z,8.70
2023-02-01T15:12:00.855Z,8.70
2023-02-01T15:14:30.021Z,8.70
2023-02-01T15:16:56.866Z,8.70
2023-02-01T15:19:28.600Z,8.70
2023-02-01T15:21:57.795Z,8.70
2023-02-01T15:24:30.346Z,8.70
2023-02-01T15:27:04.693Z,8.70
2023-02-01T15:29:33.955Z,8.60
2023-02-01T15:32:01.457Z,8.60
2023-02-01T15:34:49.471Z,8.60
2023-02-01T15:37:17.663Z,8.60
2023-02-01T15:40:06.254Z,8.60
2023-02-01T15:42:33.106Z,8.50
2023-02-01T15:45:00.330Z,8.50
2023-02-01T15:47:31.728Z,8.50
2023-02-01T15:50:01.860Z,8.50
2023-02-01T15:52:38.913Z,8.50
2023-02-01T15:55:09.861Z,8.60
2023-02-01T15:57:41.210Z,8.60
2023-02-01T16:00:29.962Z,8.60
2023-02-01T16:02:59.017Z,8.60
2023-02-01T16:05:30.051Z,8.50
2023-02-01T16:08:06.224Z,8.50
2023-02-01T16:10:39.410Z,8.50
2023-02-01T16:13:06.131Z,8.50
2023-02-01T16:15:33.055Z,8.60
2023-02-01T16:17:59.876Z,8.50
2023-02-01T16:20:26.681Z,8.50
2023-02-01T16:22:53.437Z,8.50
2023-02-01T16:25:20.272Z,8.60
2023-02-01T16:27:47.089Z,8.60
2023-02-01T16:30:14.047Z,8.60
2023-02-01T16:32:40.861Z,8.60
2023-02-01T16:35:20.663Z,8.60
2023-02-01T16:37:47.673Z,8.50
2023-02-01T16:40:16.251Z,8.50
2023-02-01T16:42:43.392Z,8.50
2023-02-01T16:45:10.628Z,8.50
2023-02-01T16:47:39.398Z,8.60
2023-02-01T16:50:23.038Z,8.50
2023-02-01T16:52:51.018Z,8.50
2023-02-01T16:55:22.583Z,8.40
2023-02-01T16:57:49.882Z,8.50
2023-02-01T17:00:25.675Z,8.50
2023-02-01T17:02:54.124Z,8.50
2023-02-01T17:05:21.012Z,8.50
2023-02-01T17:07:48.149Z,8.40
2023-02-01T17:10:34.557Z,8.50
2023-02-01T17:13:02.502Z,8.50
2023-02-01T17:15:35.021Z,8.50
2023-02-01T17:18:02.947Z,8.50
2023-02-01T17:20:33.041Z,8.50
2023-02-01T17:23:00.593Z,8.50
2023-02-01T17:25:28.667Z,8.50
2023-02-01T17:27:55.450Z,8.50
2023-02-01T17:30:22.197Z,8.50
2023-02-01T17:32:49.092Z,8.50
2023-02-01T17:35:29.159Z,8.50
2023-02-01T17:37:56.369Z,8.50
2023-02-01T17:40:24.180Z,8.50
2023-02-01T17:42:52.280Z,8.50
2023-02-01T17:45:42.049Z,8.50
2023-02-01T17:48:08.887Z,8.50
2023-02-01T17:50:37.993Z,8.40
2023-02-01T17:53:09.925Z,8.50
2023-02-01T17:55:40.733Z,8.50
2023-02-01T17:58:13.320Z,8.40
2023-02-01T18:00:41.614Z,8.40
2023-02-01T18:03:27.912Z,8.40
2023-02-01T18:05:57.273Z,8.40
2023-02-01T18:08:26.906Z,8.40
2023-02-01T18:11:02.130Z,8.40
2023-02-01T18:13:29.882Z,8.40
2023-02-01T18:15:56.881Z,8.40
2023-02-01T18:18:23.568Z,8.40
2023-02-01T18:20:50.534Z,8.40
2023-02-01T18:23:21.147Z,8.40
2023-02-01T18:25:48.942Z,8.50
2023-02-01T18:28:16.516Z,8.50
2023-02-01T18:30:46.027Z,8.40
2023-02-01T18:33:16.788Z,8.50
2023-02-01T18:35:44.137Z,8.50
2023-02-01T18:38:11.216Z,8.50
2023-02-01T18:40:43.697Z,8.50
2023-02-01T18:43:12.110Z,8.50
2023-02-01T18:45:41.380Z,8.50
2023-02-01T18:48:10.699Z,8.50
2023-02-01T18:50:43.735Z,8.50
2023-02-01T18:53:27.048Z,8.50
2023-02-01T18:55:55.826Z,8.60
2023-02-01T18:58:26.219Z,8.50
2023-02-01T19:00:55.612Z,8.60
2023-02-01T19:03:26.749Z,8.60
2023-02-01T19:05:57.380Z,8.60
2023-02-01T19:08:25.700Z,8.60
2023-02-01T19:10:53.572Z,8.60
2023-02-01T19:13:23.485Z,8.60
2023-02-01T19:15:50.739Z,8.70
2023-02-01T19:18:20.252Z,8.60
2023-02-01T19:20:50.716Z,8.60
2023-02-01T19:23:18.793Z,8.60
2023-02-01T19:25:47.465Z,8.60
2023-02-01T19:28:15.560Z,8.70
2023-02-01T19:30:42.525Z,8.70
2023-02-01T19:33:09.364Z,8.60
2023-02-01T19:35:36.182Z,8.70
2023-02-01T19:38:03.081Z,8.70
2023-02-01T19:40:29.881Z,8.70
2023-02-01T19:42:56.841Z,8.70
2023-02-01T19:45:24.580Z,8.70
2023-02-01T19:47:51.547Z,8.70
2023-02-01T19:50:20.845Z,8.70
2023-02-01T19:52:48.413Z,8.70
2023-02-01T19:55:15.198Z,8.70
2023-02-01T19:57:43.747Z,8.60
2023-02-01T20:00:16.691Z,8.70
2023-02-01T20:02:43.910Z,8.70
2023-02-01T20:05:11.844Z,8.70
2023-02-01T20:07:39.030Z,8.70
2023-02-01T20:10:06.693Z,8.70
2023-02-01T20:12:33.968Z,8.70
2023-02-01T20:15:01.275Z,8.80
2023-02-01T20:17:28.170Z,8.70
2023-02-01T20:19:54.898Z,8.70
2023-02-01T20:22:21.658Z,8.80
2023-02-01T20:24:48.420Z,8.80
2023-02-01T20:27:17.438Z,8.80
2023-02-01T20:29:44.639Z,8.80
2023-02-01T20:32:11.442Z,8.90
2023-02-01T20:34:38.274Z,8.90
2023-02-01T20:37:05.294Z,8.90
2023-02-01T20:39:32.323Z,9.00
2023-02-01T20:41:59.225Z,9.00
2023-02-01T20:44:26.110Z,9.00
2023-02-01T20:46:53.060Z,9.00
2023-02-01T20:49:19.922Z,9.00
2023-02-01T20:51:46.764Z,9.00
2023-02-01T20:54:13.538Z,9.00
2023-02-01T20:56:40.333Z,9.00
2023-02-01T20:59:10.734Z,9.00
2023-02-01T21:01:37.938Z,9.00
2023-02-01T21:04:04.772Z,9.00
2023-02-01T21:06:31.462Z,9.00
2023-02-01T21:08:58.195Z,9.00
2023-02-01T21:11:24.933Z,9.00
2023-02-01T21:13:51.778Z,9.00
2023-02-01T21:16:20.749Z,9.00
2023-02-01T21:18:54.063Z,9.00
2023-02-01T21:21:21.239Z,9.00
2023-02-01T21:23:52.777Z,9.00
2023-02-01T21:26:24.468Z,9.00
2023-02-01T21:28:53.289Z,9.00
2023-02-01T21:31:22.292Z,8.90
2023-02-01T21:33:49.731Z,8.90
2023-02-01T21:36:20.484Z,9.00
2023-02-01T21:38:52.312Z,9.00
2023-02-01T21:41:48.092Z,8.90
2023-02-01T21:44:15.189Z,9.00
2023-02-01T21:46:43.272Z,8.90
2023-02-01T21:49:10.650Z,8.90
2023-02-01T21:51:38.583Z,8.90
2023-02-01T21:54:06.272Z,8.90
2023-02-01T21:56:33.279Z,8.90
2023-02-01T21:59:00.136Z,8.90
2023-02-01T22:01:26.952Z,8.90
2023-02-01T22:03:53.846Z,9.00
2023-02-01T22:06:36.483Z,9.00
2023-02-01T22:09:04.493Z,9.00
2023-02-01T22:11:31.516Z,8.90
2023-02-01T22:13:58.497Z,8.90
2023-02-01T22:16:25.343Z,8.90
2023-02-01T22:18:53.420Z,8.90
2023-02-01T22:21:21.567Z,8.80
2023-02-01T22:23:55.994Z,8.80
2023-02-01T22:26:23.111Z,8.80
2023-02-01T22:28:50.293Z,8.80
2023-02-01T22:31:17.676Z,8.80
2023-02-01T22:33:46.723Z,8.80
2023-02-01T22:36:16.808Z,8.80
2023-02-01T22:38:44.450Z,8.80
2023-02-01T22:41:11.557Z,8.80
2023-02-01T22:43:38.592Z,8.80
2023-02-01T22:46:09.161Z,8.80
2023-02-01T22:48:37.944Z,8.80
2023-02-01T22:51:05.695Z,8.80
2023-02-01T22:53:33.400Z,8.80
2023-02-01T22:56:05.049Z,8.90
2023-02-01T22:58:32.300Z,8.90
2023-02-01T23:01:09.912Z,8.80
2023-02-01T23:03:37.514Z,8.80
2023-02-01T23:06:06.166Z,8.80
2023-02-01T23:08:35.340Z,8.80
2023-02-01T23:11:04.816Z,8.90
2023-02-01T23:13:33.105Z,8.80
2023-02-01T23:16:03.791Z,8.90
2023-02-01T23:18:30.618Z,8.90
2023-02-01T23:21:01.615Z,8.90
2023-02-01T23:23:28.300Z,8.90
2023-02-01T23:25:55.058Z,8.80
2023-02-01T23:28:21.879Z,8.80
2023-02-01T23:30:48.643Z,8.80
2023-02-01T23:33:15.423Z,8.70
2023-02-01T23:35:42.171Z,8.80
2023-02-01T23:38:08.957Z,8.80
2023-02-01T23:40:35.810Z,8.70
2023-02-01T23:43:21.163Z,8.70
2023-02-01T23:45:47.844Z,8.70
2023-02-01T23:48:14.581Z,8.80
2023-02-01T23:50:41.272Z,8.80
2023-02-01T23:53:08.269Z,8.80
2023-02-01T23:55:34.952Z,8.80
2023-02-01T23:58:01.714Z,8.80
